createdAt,value
2022-09-09T00:00:25.236Z,17.01
2022-09-09T00:03:03.438Z,16.97
2022-09-09T00:05:48.122Z,16.95
2022-09-09T00:08:19.993Z,16.92
2022-09-09T00:10:52.676Z,16.92
2022-09-09T00:13:28.781Z,16.91
2022-09-09T00:16:17.361Z,16.86
2022-09-09T00:19:14.742Z,16.85
2022-09-09T00:22:09.032Z,16.83
2022-09-09T00:24:48.043Z,16.80
2022-09-09T00:27:25.075Z,16.81
2022-09-09T00:30:03.814Z,16.79
2022-09-09T00:32:31.534Z,16.78
2022-09-09T00:35:04.872Z,16.76
2022-09-09T00:37:32.850Z,16.74
2022-09-09T00:40:01.822Z,16.73
2022-09-09T00:42:42.936Z,16.71
2022-09-09T00:45:30.903Z,16.68
2022-09-09T00:47:57.918Z,16.67
2022-09-09T00:50:36.653Z,16.67
2022-09-09T00:53:25.788Z,16.63
2022-09-09T00:56:15.461Z,16.60
2022-09-09T00:58:44.447Z,16.60
2022-09-09T01:01:12.975Z,16.60
2022-09-09T01:03:56.894Z,16.59
2022-09-09T01:06:37.730Z,16.59
2022-09-09T01:09:04.278Z,16.62
2022-09-09T01:11:51.142Z,16.60
2022-09-09T01:14:31.640Z,16.59
2022-09-09T01:17:15.881Z,16.59
2022-09-09T01:19:42.222Z,16.60
2022-09-09T01:22:27.280Z,16.61
2022-09-09T01:25:20.193Z,16.61
2022-09-09T01:27:49.473Z,16.59
2022-09-09T01:30:17.467Z,16.60
2022-09-09T01:32:49.417Z,16.59
2022-09-09T01:35:31.172Z,16.55
2022-09-09T01:37:57.723Z,16.55
2022-09-09T01:40:25.122Z,16.55
2022-09-09T01:42:52.265Z,16.55
2022-09-09T01:45:18.744Z,16.52
2022-09-09T01:47:46.350Z,16.52
2022-09-09T01:50:16.880Z,16.51
2022-09-09T01:52:45.176Z,16.49
2022-09-09T01:55:11.819Z,16.48
2022-09-09T01:58:32.375Z,16.46
2022-09-09T02:01:14.550Z,16.44
2022-09-09T02:03:44.619Z,16.43
2022-09-09T02:06:39.520Z,16.42
2022-09-09T02:09:07.634Z,16.41
2022-09-09T02:11:34.856Z,16.42
2022-09-09T02:14:05.612Z,16.40
2022-09-09T02:16:44.375Z,16.38
2022-09-09T02:19:15.316Z,16.38
2022-09-09T02:21:43.405Z,16.38
2022-09-09T02:24:11.335Z,16.38
2022-09-09T02:26:41.282Z,16.37
2022-09-09T02:29:15.294Z,16.37
2022-09-09T02:31:42.886Z,16.37
2022-09-09T02:34:11.705Z,16.37
2022-09-09T02:36:40.443Z,16.36
2022-09-09T02:39:09.135Z,16.35
2022-09-09T02:41:38.555Z,16.36
2022-09-09T02:44:13.115Z,16.34
2022-09-09T02:46:48.834Z,16.34
2022-09-09T02:49:44.413Z,16.33
2022-09-09T02:52:21.874Z,16.31
2022-09-09T02:54:51.147Z,16.29
2022-09-09T02:57:23.994Z,16.29
2022-09-09T02:59:51.122Z,16.29
2022-09-09T03:02:17.690Z,16.28
2022-09-09T03:04:45.470Z,16.28
2022-09-09T03:07:13.056Z,16.26
2022-09-09T03:09:39.487Z,16.26
2022-09-09T03:12:06.016Z,16.24
2022-09-09T03:14:32.435Z,16.21
2022-09-09T03:17:01.723Z,16.20
2022-09-09T03:19:28.816Z,16.19
2022-09-09T03:21:55.363Z,16.19
2022-09-09T03:24:22.347Z,16.17
2022-09-09T03:26:48.831Z,16.16
2022-09-09T03:29:15.747Z,16.15
2022-09-09T03:31:43.919Z,16.15
2022-09-09T03:34:10.583Z,16.14
2022-09-09T03:36:37.509Z,16.15
2022-09-09T03:39:04.163Z,16.15
2022-09-09T03:41:31.155Z,16.15
2022-09-09T03:43:57.653Z,16.14
2022-09-09T03:46:25.580Z,16.13
2022-09-09T03:48:53.305Z,16.13
2022-09-09T03:51:20.139Z,16.12
2022-09-09T03:53:46.519Z,16.10
2022-09-09T03:56:12.985Z,16.12
2022-09-09T03:58:39.455Z,16.13
2022-09-09T04:01:11.710Z,16.13
2022-09-09T04:03:38.155Z,16.14
2022-09-09T04:06:05.838Z,16.13
2022-09-09T04:08:32.675Z,16.13
2022-09-09T04:10:59.464Z,16.11
2022-09-09T04:13:27.288Z,16.09
2022-09-09T04:15:55.350Z,16.07
2022-09-09T04:18:22.101Z,16.06
2022-09-09T04:20:49.694Z,16.05
2022-09-09T04:23:16.900Z,16.04
2022-09-09T04:25:47.819Z,16.02
2022-09-09T04:28:15.246Z,16.03
2022-09-09T04:30:42.431Z,16.03
2022-09-09T04:33:09.230Z,16.03
2022-09-09T04:35:35.929Z,16.02
2022-09-09T04:38:03.616Z,16.01
2022-09-09T04:40:31.046Z,16.02
2022-09-09T04:43:06.862Z,15.98
2022-09-09T04:45:34.535Z,16.00
2022-09-09T04:48:01.159Z,15.99
2022-09-09T04:50:27.602Z,15.99
2022-09-09T04:52:53.985Z,16.00
2022-09-09T04:55:21.028Z,16.00
2022-09-09T04:57:47.520Z,16.02
2022-09-09T05:00:14.549Z,16.02
2022-09-09T05:02:41.131Z,16.03
2022-09-09T05:05:07.804Z,16.04
2022-09-09T05:07:34.186Z,16.07
2022-09-09T05:10:00.604Z,16.09
2022-09-09T05:12:27.074Z,16.12
2022-09-09T05:14:53.610Z,16.14
2022-09-09T05:17:20.161Z,16.17
2022-09-09T05:19:46.553Z,16.19
2022-09-09T05:22:12.934Z,16.21
2022-09-09T05:24:39.626Z,16.25
2022-09-09T05:27:07.023Z,16.29
2022-09-09T05:29:34.503Z,16.36
2022-09-09T05:32:01.114Z,16.41
2022-09-09T05:34:27.997Z,16.45
2022-09-09T05:36:54.666Z,16.48
2022-09-09T05:39:21.074Z,16.53
2022-09-09T05:41:47.647Z,16.55
2022-09-09T05:44:14.413Z,16.58
2022-09-09T05:46:40.869Z,16.62
2022-09-09T05:49:07.345Z,16.67
2022-09-09T05:51:33.750Z,16.72
2022-09-09T05:54:00.167Z,16.77
2022-09-09T05:56:28.962Z,16.81
2022-09-09T05:58:56.370Z,16.83
2022-09-09T06:01:25.407Z,16.90
2022-09-09T06:03:52.946Z,16.93
2022-09-09T06:06:24.847Z,16.96
2022-09-09T06:08:53.785Z,17.00
2022-09-09T06:11:22.719Z,17.03
2022-09-09T06:13:51.911Z,17.07
2022-09-09T06:16:19.686Z,17.12
2022-09-09T06:18:46.139Z,17.16
2022-09-09T06:21:16.738Z,17.19
2022-09-09T06:23:43.342Z,17.23
2022-09-09T06:26:15.519Z,17.27
2022-09-09T06:28:43.719Z,17.29
2022-09-09T06:31:12.367Z,17.31
2022-09-09T06:33:41.965Z,17.33
2022-09-09T06:36:13.560Z,17.36
2022-09-09T06:38:40.013Z,17.39
2022-09-09T06:41:06.787Z,17.44
2022-09-09T06:43:33.398Z,17.50
2022-09-09T06:46:01.447Z,17.57
2022-09-09T06:48:29.035Z,17.64
2022-09-09T06:51:03.641Z,17.70
2022-09-09T06:53:30.859Z,17.74
2022-09-09T06:55:57.393Z,17.79
2022-09-09T06:58:23.803Z,17.80
2022-09-09T07:00:50.709Z,17.84
2022-09-09T07:03:17.144Z,17.86
2022-09-09T07:05:45.236Z,17.93
2022-09-09T07:08:11.778Z,17.97
2022-09-09T07:10:38.197Z,17.99
2022-09-09T07:13:05.612Z,18.01
2022-09-09T07:15:34.684Z,18.03
2022-09-09T07:18:04.245Z,18.07
2022-09-09T07:20:30.666Z,18.09
2022-09-09T07:22:57.665Z,18.13
2022-09-09T07:25:24.129Z,18.22
2022-09-09T07:27:50.539Z,18.26
2022-09-09T07:30:22.000Z,18.28
2022-09-09T07:32:52.991Z,18.32
2022-09-09T07:35:19.401Z,18.36
2022-09-09T07:37:50.306Z,18.37
2022-09-09T07:40:17.545Z,18.43
2022-09-09T07:42:43.988Z,18.47
2022-09-09T07:45:10.376Z,18.53
2022-09-09T07:47:36.768Z,18.58
2022-09-09T07:50:03.188Z,18.63
2022-09-09T07:52:29.574Z,18.69
2022-09-09T07:54:57.398Z,18.74
2022-09-09T07:57:24.029Z,18.77
2022-09-09T07:59:51.571Z,18.81
2022-09-09T08:02:17.954Z,18.85
2022-09-09T08:04:44.361Z,18.92
2022-09-09T08:07:11.572Z,18.97
2022-09-09T08:09:37.973Z,19.03
2022-09-09T08:12:04.554Z,19.08
2022-09-09T08:14:30.963Z,19.12
2022-09-09T08:16:58.131Z,19.19
2022-09-09T08:19:24.543Z,19.26
2022-09-09T08:21:50.942Z,19.33
2022-09-09T08:24:17.711Z,19.42
2022-09-09T08:26:45.850Z,19.56
2022-09-09T08:29:14.070Z,19.65
2022-09-09T08:31:43.965Z,19.76
2022-09-09T08:34:10.574Z,19.89
2022-09-09T08:36:39.260Z,19.99
2022-09-09T08:39:06.812Z,20.11
2022-09-09T08:41:51.912Z,20.19
2022-09-09T08:44:39.538Z,20.22
2022-09-09T08:47:12.066Z,20.33
2022-09-09T08:50:06.582Z,20.43
2022-09-09T08:52:54.322Z,20.54
2022-09-09T08:55:43.028Z,20.57
2022-09-09T08:58:15.887Z,20.67
2022-09-09T09:01:10.216Z,20.77
2022-09-09T09:03:40.116Z,20.93
2022-09-09T09:06:40.386Z,21.04
2022-09-09T09:09:22.418Z,21.07
2022-09-09T09:11:54.854Z,21.12
2022-09-09T09:14:24.867Z,21.13
2022-09-09T09:17:22.426Z,21.15
2022-09-09T09:19:50.548Z,21.21
2022-09-09T09:22:23.184Z,21.22
2022-09-09T09:24:57.987Z,21.24
2022-09-09T09:27:35.021Z,21.28
2022-09-09T09:30:29.865Z,21.26
2022-09-09T09:33:00.793Z,21.28
2022-09-09T09:35:27.207Z,21.28
2022-09-09T09:40:51.055Z,21.32
2022-09-09T09:43:21.633Z,21.29
2022-09-09T09:46:06.956Z,21.33
2022-09-09T09:48:35.624Z,21.35
2022-09-09T09:51:08.178Z,21.36
2022-09-09T09:53:35.686Z,21.41
2022-09-09T09:56:04.243Z,21.44
2022-09-09T09:58:34.764Z,21.48
2022-09-09T10:01:01.915Z,21.51
2022-09-09T10:03:31.510Z,21.56
2022-09-09T10:05:58.578Z,21.63
2022-09-09T10:08:28.835Z,21.58
2022-09-09T10:11:07.857Z,21.56
2022-09-09T10:13:40.102Z,21.54
2022-09-09T10:16:22.946Z,21.50
2022-09-09T10:19:02.272Z,21.46
2022-09-09T10:21:47.921Z,21.48
2022-09-09T10:24:35.067Z,21.53
2022-09-09T10:27:14.501Z,21.63
2022-09-09T10:29:48.543Z,21.67
2022-09-09T10:32:56.603Z,21.69
2022-09-09T10:36:03.055Z,21.72
2022-09-09T10:38:44.316Z,21.78
2022-09-09T10:41:21.290Z,21.86
2022-09-09T10:44:12.634Z,21.94
2022-09-09T10:47:01.759Z,22.00
2022-09-09T10:49:50.624Z,22.07
2022-09-09T10:52:33.903Z,22.15
2022-09-09T10:55:08.085Z,22.20
2022-09-09T10:57:38.599Z,22.21
2022-09-09T11:00:07.732Z,22.27
2022-09-09T11:02:35.266Z,22.30
2022-09-09T11:05:09.586Z,22.34
2022-09-09T11:07:42.265Z,22.45
2022-09-09T11:10:19.136Z,22.49
2022-09-09T11:12:46.778Z,22.52
2022-09-09T11:15:27.094Z,22.56
2022-09-09T11:18:02.482Z,22.60
2022-09-09T11:20:29.323Z,22.63
2022-09-09T11:23:01.347Z,22.69
2022-09-09T11:25:34.519Z,22.76
2022-09-09T11:28:28.845Z,22.70
2022-09-09T11:31:29.602Z,22.84
2022-09-09T11:34:09.505Z,23.00
2022-09-09T11:37:14.563Z,23.11
2022-09-09T11:40:08.719Z,23.20
2022-09-09T11:42:35.257Z,23.27
2022-09-09T11:45:31.174Z,23.35
2022-09-09T11:47:59.428Z,23.43
2022-09-09T11:50:25.712Z,23.53
2022-09-09T11:52:54.718Z,23.60
2022-09-09T11:55:29.789Z,23.64
2022-09-09T11:58:00.420Z,23.68
2022-09-09T12:00:41.133Z,23.76
2022-09-09T12:03:34.888Z,23.82
2022-09-09T12:06:10.545Z,23.87
2022-09-09T12:08:38.077Z,23.95
2022-09-09T12:11:05.518Z,24.06
2022-09-09T12:13:32.698Z,24.16
2022-09-09T12:16:00.477Z,24.14
2022-09-09T12:18:37.657Z,24.25
2022-09-09T12:21:27.784Z,24.32
2022-09-09T12:24:01.679Z,24.42
2022-09-09T12:26:33.866Z,24.25
2022-09-09T12:29:08.345Z,24.22
2022-09-09T12:32:07.136Z,24.25
2022-09-09T12:34:40.776Z,24.27
2022-09-09T12:37:20.216Z,24.31
2022-09-09T12:39:52.163Z,24.38
2022-09-09T12:42:22.878Z,24.41
2022-09-09T12:44:59.823Z,24.36
2022-09-09T12:47:46.872Z,24.36
2022-09-09T12:50:20.638Z,24.31
2022-09-09T12:52:48.306Z,24.28
2022-09-09T12:55:22.375Z,24.16
2022-09-09T12:57:51.181Z,24.17
2022-09-09T13:00:21.395Z,24.16
2022-09-09T13:02:52.871Z,24.18
2022-09-09T13:05:25.092Z,24.14
2022-09-09T13:07:51.781Z,24.08
2022-09-09T13:10:36.232Z,24.11
2022-09-09T13:13:04.036Z,24.07
2022-09-09T13:15:30.767Z,24.00
2022-09-09T13:18:01.627Z,24.03
2022-09-09T13:20:28.806Z,24.02
2022-09-09T13:22:56.011Z,23.96
2022-09-09T13:25:28.797Z,23.97
2022-09-09T13:28:01.746Z,23.89
2022-09-09T13:30:41.981Z,23.79
2022-09-09T13:33:15.389Z,23.54
2022-09-09T13:35:48.744Z,23.45
2022-09-09T13:38:16.546Z,23.37
2022-09-09T13:40:58.617Z,23.29
2022-09-09T13:43:26.421Z,23.20
2022-09-09T13:45:58.915Z,23.14
2022-09-09T13:48:26.641Z,23.23
2022-09-09T13:51:01.906Z,23.30
2022-09-09T13:53:28.518Z,23.45
2022-09-09T13:55:54.980Z,23.55
2022-09-09T13:58:22.492Z,23.62
2022-09-09T14:00:49.084Z,23.67
2022-09-09T14:03:15.522Z,23.71
2022-09-09T14:05:43.133Z,23.76
2022-09-09T14:08:17.560Z,23.85
2022-09-09T14:10:43.993Z,23.91
2022-09-09T14:13:10.391Z,23.96
2022-09-09T14:15:36.923Z,23.93
2022-09-09T14:18:03.410Z,23.95
2022-09-09T14:20:29.804Z,23.97
2022-09-09T14:23:03.378Z,24.02
2022-09-09T14:25:30.091Z,24.05
2022-09-09T14:27:57.155Z,24.09
2022-09-09T14:30:23.594Z,24.15
2022-09-09T14:32:49.977Z,24.18
2022-09-09T14:35:18.246Z,24.22
2022-09-09T14:37:45.573Z,24.28
2022-09-09T14:40:12.310Z,24.33
2022-09-09T14:42:38.780Z,24.35
2022-09-09T14:45:05.719Z,24.39
2022-09-09T14:47:32.297Z,24.37
2022-09-09T14:49:58.727Z,24.39
2022-09-09T14:52:26.301Z,24.31
2022-09-09T14:54:52.713Z,24.16
2022-09-09T14:57:19.266Z,24.19
2022-09-09T14:59:45.817Z,24.22
2022-09-09T15:02:14.914Z,24.22
2022-09-09T15:04:41.377Z,24.10
2022-09-09T15:07:07.801Z,24.16
2022-09-09T15:09:34.225Z,24.10
2022-09-09T15:12:01.722Z,24.05
2022-09-09T15:14:28.144Z,24.03
2022-09-09T15:16:54.546Z,23.98
2022-09-09T15:19:21.016Z,23.96
2022-09-09T15:21:48.460Z,23.95
2022-09-09T15:24:14.897Z,23.98
2022-09-09T15:26:41.302Z,24.00
2022-09-09T15:29:08.963Z,24.01
2022-09-09T15:31:35.532Z,24.01
2022-09-09T15:34:06.605Z,24.02
2022-09-09T15:36:41.116Z,23.99
2022-09-09T15:39:10.600Z,24.00
2022-09-09T15:41:36.995Z,24.02
2022-09-09T15:44:03.743Z,24.03
2022-09-09T15:46:33.137Z,24.09
2022-09-09T15:49:10.161Z,24.12
2022-09-09T15:51:43.251Z,24.13
2022-09-09T15:54:13.101Z,24.14
2022-09-09T15:56:39.633Z,24.20
2022-09-09T15:59:06.090Z,24.22
2022-09-09T16:01:33.324Z,24.31
2022-09-09T16:04:00.971Z,24.40
2022-09-09T16:06:29.241Z,24.45
2022-09-09T16:08:57.367Z,24.49
2022-09-09T16:11:26.549Z,24.52
2022-09-09T16:13:54.353Z,24.51
2022-09-09T16:16:23.374Z,24.43
2022-09-09T16:18:52.845Z,24.40
2022-09-09T16:21:27.165Z,24.38
2022-09-09T16:23:56.999Z,24.33
2022-09-09T16:26:24.104Z,24.27
2022-09-09T16:28:50.655Z,24.20
2022-09-09T16:31:19.824Z,24.14
2022-09-09T16:33:47.187Z,23.99
2022-09-09T16:36:15.330Z,24.00
2022-09-09T16:38:42.180Z,24.00
2022-09-09T16:41:10.093Z,23.98
2022-09-09T16:43:37.537Z,23.88
2022-09-09T16:46:05.589Z,23.77
2022-09-09T16:48:34.104Z,23.76
2022-09-09T16:51:09.106Z,23.72
2022-09-09T16:53:35.628Z,23.64
2022-09-09T16:56:09.306Z,23.60
2022-09-09T16:58:35.907Z,23.57
2022-09-09T17:01:04.161Z,23.53
2022-09-09T17:03:32.191Z,23.53
2022-09-09T17:06:02.761Z,23.51
2022-09-09T17:08:32.491Z,23.47
2022-09-09T17:10:59.973Z,23.39
2022-09-09T17:13:26.531Z,23.36
2022-09-09T17:15:53.291Z,23.31
2022-09-09T17:18:20.279Z,23.28
2022-09-09T17:20:47.386Z,23.25
2022-09-09T17:23:16.780Z,23.21
2022-09-09T17:25:44.127Z,23.14
2022-09-09T17:28:10.579Z,23.07
2022-09-09T17:30:37.608Z,23.02
2022-09-09T17:33:04.913Z,23.00
2022-09-09T17:35:32.210Z,22.96
2022-09-09T17:37:58.977Z,22.90
2022-09-09T17:40:25.409Z,22.83
2022-09-09T17:42:51.973Z,22.72
2022-09-09T17:45:18.392Z,22.63
2022-09-09T17:47:45.584Z,22.54
2022-09-09T17:50:13.681Z,22.46
2022-09-09T17:52:41.501Z,22.41
2022-09-09T17:55:10.160Z,22.36
2022-09-09T17:57:36.582Z,22.30
2022-09-09T18:00:06.482Z,22.23
2022-09-09T18:02:32.934Z,22.18
2022-09-09T18:04:59.910Z,22.13
2022-09-09T18:07:26.303Z,22.06
2022-09-09T18:09:52.724Z,22.01
2022-09-09T18:12:19.123Z,21.96
2022-09-09T18:14:45.552Z,21.93
2022-09-09T18:17:12.626Z,21.85
2022-09-09T18:19:39.044Z,21.80
2022-09-09T18:22:06.787Z,21.74
2022-09-09T18:24:33.770Z,21.69
2022-09-09T18:27:00.831Z,21.64
2022-09-09T18:29:27.241Z,21.57
2022-09-09T18:31:54.880Z,21.50
2022-09-09T18:34:22.667Z,21.45
2022-09-09T18:36:56.111Z,21.39
2022-09-09T18:39:25.036Z,21.34
2022-09-09T18:41:53.996Z,21.27
2022-09-09T18:44:23.377Z,21.22
2022-09-09T18:46:50.225Z,21.17
2022-09-09T18:49:16.992Z,21.12
2022-09-09T18:51:45.243Z,21.09
2022-09-09T18:54:16.374Z,21.04
2022-09-09T18:56:43.689Z,20.99
2022-09-09T18:59:13.097Z,20.92
2022-09-09T19:01:39.960Z,20.88
2022-09-09T19:04:07.478Z,20.83
2022-09-09T19:06:36.926Z,20.78
2022-09-09T19:09:04.221Z,20.71
2022-09-09T19:11:32.161Z,20.67
2022-09-09T19:14:01.373Z,20.62
2022-09-09T19:16:29.775Z,20.57
2022-09-09T19:19:02.231Z,20.52
2022-09-09T19:21:35.628Z,20.48
2022-09-09T19:24:06.622Z,20.44
2022-09-09T19:26:40.729Z,20.41
2022-09-09T19:29:10.094Z,20.36
2022-09-09T19:31:37.075Z,20.32
2022-09-09T19:34:03.715Z,20.28
2022-09-09T19:36:31.504Z,20.26
2022-09-09T19:38:58.075Z,20.24
2022-09-09T19:41:26.508Z,20.20
2022-09-09T19:43:57.297Z,20.15
2022-09-09T19:46:23.709Z,20.12
2022-09-09T19:48:50.582Z,20.09
2022-09-09T19:51:19.734Z,20.05
2022-09-09T19:53:48.733Z,20.01
2022-09-09T19:56:16.519Z,19.98
2022-09-09T19:58:44.642Z,19.95
2022-09-09T20:01:13.989Z,19.91
2022-09-09T20:03:42.009Z,19.89
2022-09-09T20:06:12.073Z,19.87
2022-09-09T20:08:39.368Z,19.85
2022-09-09T20:11:07.126Z,19.82
2022-09-09T20:13:36.271Z,19.81
2022-09-09T20:16:14.163Z,19.77
2022-09-09T20:18:43.240Z,19.75
2022-09-09T20:21:37.834Z,19.70
2022-09-09T20:24:07.366Z,19.65
2022-09-09T20:26:36.269Z,19.63
2022-09-09T20:29:05.445Z,19.61
2022-09-09T20:31:36.240Z,19.57
2022-09-09T20:34:04.114Z,19.56
2022-09-09T20:36:33.646Z,19.54
2022-09-09T20:39:03.507Z,19.50
2022-09-09T20:41:33.002Z,19.47
2022-09-09T20:44:04.402Z,19.42
2022-09-09T20:46:33.591Z,19.40
2022-09-09T20:49:03.125Z,19.37
2022-09-09T20:51:33.057Z,19.34
2022-09-09T20:54:08.602Z,19.29
2022-09-09T20:56:40.050Z,19.27
2022-09-09T20:59:13.088Z,19.23
2022-09-09T21:01:39.994Z,19.23
2022-09-09T21:04:07.083Z,19.21
2022-09-09T21:06:33.674Z,19.20
2022-09-09T21:09:00.137Z,19.18
2022-09-09T21:11:26.630Z,19.17
2022-09-09T21:13:53.066Z,19.14
2022-09-09T21:16:19.547Z,19.12
2022-09-09T21:18:46.078Z,19.09
2022-09-09T21:21:12.974Z,19.07
2022-09-09T21:23:39.418Z,19.03
2022-09-09T21:26:07.524Z,19.02
2022-09-09T21:28:35.993Z,18.98
2022-09-09T21:31:03.550Z,18.97
2022-09-09T21:33:30.346Z,18.94
2022-09-09T21:36:03.033Z,18.93
2022-09-09T21:38:29.471Z,18.92
2022-09-09T21:40:55.867Z,18.90
2022-09-09T21:43:23.528Z,18.89
2022-09-09T21:45:50.795Z,18.88
2022-09-09T21:48:18.645Z,18.85
2022-09-09T21:50:47.679Z,18.85
2022-09-09T21:53:15.806Z,18.83
2022-09-09T21:55:42.966Z,18.83
2022-09-09T21:58:10.051Z,18.81
2022-09-09T22:00:36.580Z,18.80
2022-09-09T22:03:03.579Z,18.81
2022-09-09T22:05:31.426Z,18.79
2022-09-09T22:07:58.354Z,18.78
2022-09-09T22:10:27.033Z,18.76
2022-09-09T22:12:54.058Z,18.76
2022-09-09T22:15:20.706Z,18.75
2022-09-09T22:17:47.133Z,18.75
2022-09-09T22:20:13.550Z,18.74
2022-09-09T22:22:39.939Z,18.72
2022-09-09T22:25:07.375Z,18.71
2022-09-09T22:27:33.779Z,18.69
2022-09-09T22:30:00.183Z,18.67
2022-09-09T22:32:27.035Z,18.63
2022-09-09T22:34:53.435Z,18.60
2022-09-09T22:37:19.849Z,18.59
2022-09-09T22:39:46.306Z,18.58
2022-09-09T22:42:13.665Z,18.56
2022-09-09T22:44:40.077Z,18.55
2022-09-09T22:47:06.510Z,18.52
2022-09-09T22:49:32.921Z,18.48
2022-09-09T22:51:59.338Z,18.43
2022-09-09T22:54:25.723Z,18.40
2022-09-09T22:56:52.230Z,18.35
2022-09-09T22:59:19.338Z,18.33
2022-09-09T23:01:46.748Z,18.28
2022-09-09T23:04:13.568Z,18.24
2022-09-09T23:06:43.295Z,18.22
2022-09-09T23:09:11.322Z,18.18
2022-09-09T23:11:37.713Z,18.15
2022-09-09T23:14:06.507Z,18.13
2022-09-09T23:16:38.172Z,18.10
2022-09-09T23:19:04.806Z,18.06
2022-09-09T23:21:31.920Z,18.03
2022-09-09T23:23:59.651Z,18.00
2022-09-09T23:26:26.729Z,17.96
2022-09-09T23:28:56.524Z,17.93
2022-09-09T23:31:24.849Z,17.92
2022-09-09T23:33:54.252Z,17.90
2022-09-09T23:36:22.213Z,17.87
2022-09-09T23:38:48.651Z,17.84
2022-09-09T23:41:19.684Z,17.81
2022-09-09T23:43:46.225Z,17.78
2022-09-09T23:46:15.112Z,17.75
2022-09-09T23:48:42.576Z,17.73
2022-09-09T23:51:12.404Z,17.70
2022-09-09T23:53:40.197Z,17.67
2022-09-09T23:56:07.027Z,17.66
2022-09-09T23:58:33.738Z,17.63
